Time;durP1;ratioP1;P1;durP2;ratioP2;P2;SDS_P1;SDS_P2;PMS_P1;PMS_P2;Temp;Humidity;BMP_temperature;BMP_pressure;BME280_temperature;BME280_humidity;BME280_pressure;Samples;Min_cycle;Max_cycle;Signal;HPM_P1;HPM_P2
2021/12/20 00:01:43;;;;;;;2.90;2.70;;;5.10;99.90;;;;;;4995775;28;20295;-79
2021/12/20 00:04:10;;;;;;;2.92;2.72;;;5.00;99.90;;;;;;4999065;28;21085;-83
2021/12/20 00:06:37;;;;;;;3.08;2.88;;;4.90;99.90;;;;;;4998340;28;20329;-83
2021/12/20 00:09:05;;;;;;;2.72;2.60;;;4.90;99.90;;;;;;4996096;28;20656;-81
2021/12/20 00:11:33;;;;;;;2.92;2.72;;;4.80;99.90;;;;;;5001498;28;20722;-83
2021/12/20 00:14:00;;;;;;;3.15;2.92;;;4.80;99.90;;;;;;5000823;28;20223;-83
2021/12/20 00:16:28;;;;;;;3.03;2.83;;;4.70;99.90;;;;;;5000321;28;20620;-81
2021/12/20 00:18:55;;;;;;;3.22;3.03;;;4.80;99.90;;;;;;4999982;28;20227;-86
2021/12/20 00:21:22;;;;;;;3.40;3.20;;;4.70;99.90;;;;;;5004133;28;20216;-80
2021/12/20 00:23:49;;;;;;;3.47;3.28;;;4.70;99.90;;;;;;5004406;28;20219;-80
2021/12/20 00:26:16;;;;;;;4.43;3.10;;;4.60;99.90;;;;;;5004608;28;20227;-81
2021/12/20 00:28:44;;;;;;;2.65;2.45;;;4.60;99.90;;;;;;4994474;28;20262;-83
2021/12/20 00:31:11;;;;;;;2.30;2.20;;;4.60;99.90;;;;;;4997170;28;20217;-82
2021/12/20 00:33:39;;;;;;;3.15;2.95;;;4.60;99.90;;;;;;5010369;28;20697;-80
2021/12/20 00:36:08;;;;;;;2.13;2.03;;;4.60;99.90;;;;;;5004663;28;20219;-86
2021/12/20 00:41:19;;;;;;;2.63;2.50;;;4.60;99.90;;;;;;5004895;28;20590;-81
2021/12/20 00:43:48;;;;;;;2.60;2.40;;;4.60;99.90;;;;;;4999898;28;20232;-80
2021/12/20 00:46:15;;;;;;;3.05;2.90;;;4.50;99.90;;;;;;4999811;28;20227;-81
2021/12/20 00:48:42;;;;;;;2.80;2.60;;;4.50;99.90;;;;;;4997315;28;20235;-80
2021/12/20 00:51:09;;;;;;;2.58;2.47;;;4.50;99.90;;;;;;4997582;28;20219;-82
2021/12/20 00:53:36;;;;;;;3.22;3.03;;;4.50;99.90;;;;;;4992509;28;20223;-80
2021/12/20 00:56:04;;;;;;;2.45;2.35;;;4.40;99.90;;;;;;4996322;28;20240;-80
2021/12/20 00:58:31;;;;;;;2.60;2.50;;;4.40;99.90;;;;;;5000719;28;20250;-84
2021/12/20 01:00:59;;;;;;;2.60;2.50;;;4.40;99.90;;;;;;4997996;28;20601;-85
2021/12/20 01:03:30;;;;;;;3.10;2.90;;;4.40;99.90;;;;;;4999700;28;20228;-82
2021/12/20 01:05:57;;;;;;;2.80;2.70;;;4.40;99.90;;;;;;4997938;28;20219;-82
2021/12/20 01:08:24;;;;;;;3.08;2.88;;;4.40;99.90;;;;;;5011217;28;20238;-84
2021/12/20 01:10:54;;;;;;;2.80;2.60;;;4.40;99.90;;;;;;4993596;28;20232;-83
2021/12/20 01:13:24;;;;;;;2.70;2.60;;;4.40;99.90;;;;;;5000399;28;20721;-81
2021/12/20 01:15:54;;;;;;;2.85;2.75;;;4.40;99.90;;;;;;4998181;28;20230;-80
2021/12/20 01:18:23;;;;;;;2.53;2.42;;;4.40;99.90;;;;;;4995033;28;20228;-86
2021/12/20 01:20:50;;;;;;;3.00;2.80;;;4.50;99.90;;;;;;4999975;28;20228;-79
2021/12/20 01:23:18;;;;;;;3.13;2.80;;;4.50;99.90;;;;;;5013104;28;20748;-81
2021/12/20 01:25:46;;;;;;;2.70;2.60;;;4.50;99.90;;;;;;5009844;28;20301;-82
2021/12/20 01:28:13;;;;;;;2.80;2.60;;;4.40;99.90;;;;;;5011852;28;20227;-83
2021/12/20 01:30:41;;;;;;;2.63;2.53;;;4.40;99.90;;;;;;5008848;28;20243;-83
2021/12/20 01:33:11;;;;;;;3.00;2.90;;;4.30;99.90;;;;;;5011594;28;20235;-81
2021/12/20 01:35:40;;;;;;;2.95;2.85;;;4.30;99.90;;;;;;5007884;28;20244;-84
2021/12/20 01:38:08;;;;;;;2.92;2.72;;;4.30;99.90;;;;;;5002424;28;20220;-83
2021/12/20 01:40:36;;;;;;;3.47;2.92;;;4.30;99.90;;;;;;5007922;28;20224;-80
2021/12/20 01:43:04;;;;;;;2.80;2.70;;;4.20;99.90;;;;;;5007948;28;20247;-83
2021/12/20 01:45:31;;;;;;;2.53;2.42;;;4.10;99.90;;;;;;5010323;28;20228;-79
2021/12/20 01:48:06;;;;;;;2.85;2.70;;;4.10;99.90;;;;;;5010092;28;20220;-86
2021/12/20 01:50:41;;;;;;;3.00;2.80;;;4.10;99.90;;;;;;5010085;28;20215;-84
2021/12/20 01:53:11;;;;;;;2.90;2.80;;;4.10;99.90;;;;;;5003091;28;20353;-81
2021/12/20 01:55:39;;;;;;;2.65;2.55;;;4.00;99.90;;;;;;5009495;28;20222;-86
2021/12/20 01:58:06;;;;;;;2.85;2.75;;;4.00;99.90;;;;;;4995390;28;20224;-87
2021/12/20 02:00:37;;;;;;;2.60;2.50;;;4.00;99.90;;;;;;5001678;28;20229;-86
2021/12/20 02:03:12;;;;;;;2.38;2.28;;;4.00;99.90;;;;;;5003358;28;20255;-81
2021/12/20 02:05:49;;;;;;;2.75;2.65;;;4.10;99.90;;;;;;4999521;28;20232;-81
2021/12/20 02:08:21;;;;;;;2.90;2.80;;;4.10;99.90;;;;;;5000768;28;20792;-81
2021/12/20 02:10:50;;;;;;;2.58;2.47;;;4.20;99.90;;;;;;5002564;28;20228;-82
2021/12/20 02:13:18;;;;;;;3.00;2.90;;;4.20;99.90;;;;;;4996693;28;20214;-82
2021/12/20 02:15:45;;;;;;;2.65;2.55;;;4.30;99.90;;;;;;5000169;28;20224;-82
2021/12/20 02:18:13;;;;;;;2.80;2.70;;;4.30;99.90;;;;;;4999090;28;20232;-83
2021/12/20 02:20:41;;;;;;;2.85;2.65;;;4.20;99.90;;;;;;5006653;28;20220;-85
2021/12/20 02:23:09;;;;;;;2.95;2.80;;;4.20;99.90;;;;;;5002206;28;20227;-85
2021/12/20 02:25:37;;;;;;;3.00;2.80;;;4.20;99.90;;;;;;5012421;28;20311;-81
2021/12/20 02:28:07;;;;;;;3.03;2.83;;;4.10;99.90;;;;;;5012820;28;20221;-80
2021/12/20 02:30:52;;;;;;;2.50;2.40;;;4.10;99.90;;;;;;5007785;28;20235;-80
2021/12/20 02:38:53;;;;;;;2.72;2.60;;;4.00;99.90;;;;;;5007867;28;20243;-83
2021/12/20 02:41:24;;;;;;;2.67;2.58;;;4.00;99.90;;;;;;5004187;28;20298;-84
2021/12/20 02:43:54;;;;;;;2.90;2.80;;;3.90;99.90;;;;;;5011286;28;20699;-80
2021/12/20 02:46:45;;;;;;;2.58;2.47;;;3.90;99.90;;;;;;5006954;28;20251;-80
2021/12/20 02:49:14;;;;;;;2.40;2.30;;;3.90;99.90;;;;;;4996839;28;21538;-83
2021/12/20 02:51:44;;;;;;;2.80;2.70;;;4.00;99.90;;;;;;5013827;28;20224;-80
2021/12/20 02:54:14;;;;;;;2.58;2.47;;;3.90;99.90;;;;;;5011953;28;20228;-82
2021/12/20 02:56:42;;;;;;;2.58;2.47;;;4.00;99.90;;;;;;5004388;28;20216;-80
2021/12/20 02:59:10;;;;;;;2.65;2.55;;;4.00;99.90;;;;;;5008600;28;20292;-84
2021/12/20 03:01:39;;;;;;;2.60;2.50;;;4.00;99.90;;;;;;5007866;28;20226;-83
2021/12/20 03:04:07;;;;;;;2.80;2.70;;;3.90;99.90;;;;;;5007732;28;20227;-81
2021/12/20 03:06:40;;;;;;;2.72;2.63;;;3.80;99.90;;;;;;5013705;28;20235;-80
2021/12/20 03:09:12;;;;;;;2.60;2.50;;;3.80;99.90;;;;;;4999892;28;20247;-81
2021/12/20 03:11:39;;;;;;;2.58;2.47;;;3.80;99.90;;;;;;5001157;28;20730;-82
2021/12/20 03:14:14;;;;;;;3.08;2.88;;;3.90;99.90;;;;;;5005221;28;20779;-81
2021/12/20 03:16:41;;;;;;;2.40;2.30;;;3.90;99.90;;;;;;5001220;28;20670;-81
2021/12/20 03:19:08;;;;;;;2.13;2.03;;;3.90;99.90;;;;;;5009370;28;20718;-82
2021/12/20 03:21:35;;;;;;;1.98;1.88;;;3.90;99.90;;;;;;5008132;28;20219;-80
2021/12/20 03:24:03;;;;;;;2.47;2.38;;;3.90;99.90;;;;;;5011516;28;20702;-81
2021/12/20 03:26:32;;;;;;;3.05;2.85;;;3.90;99.90;;;;;;5012277;28;20231;-83
2021/12/20 03:28:59;;;;;;;3.05;2.85;;;3.90;99.90;;;;;;5009211;28;20231;-83
2021/12/20 03:31:26;;;;;;;2.78;2.67;;;3.90;99.90;;;;;;5004972;28;20316;-81
2021/12/20 03:33:53;;;;;;;3.17;2.97;;;3.90;99.90;;;;;;5009868;28;20219;-83
2021/12/20 03:36:21;;;;;;;3.10;3.00;;;3.90;99.90;;;;;;5004005;28;20778;-81
2021/12/20 03:38:48;;;;;;;3.30;3.10;;;3.80;99.90;;;;;;4970788;28;20537;-83
2021/12/20 03:41:15;;;;;;;2.80;2.70;;;3.80;99.90;;;;;;4999660;28;20236;-84
2021/12/20 03:43:44;;;;;;;2.97;2.83;;;3.70;99.90;;;;;;5004057;28;20285;-83
2021/12/20 03:46:11;;;;;;;2.97;2.80;;;3.70;99.90;;;;;;5003452;28;20224;-82
2021/12/20 03:48:38;;;;;;;2.95;2.80;;;3.60;99.90;;;;;;5003197;28;20603;-84
2021/12/20 03:51:06;;;;;;;3.30;3.10;;;3.60;99.90;;;;;;4996241;28;20286;-86
2021/12/20 03:53:34;;;;;;;3.17;2.97;;;3.50;99.90;;;;;;5003806;28;20228;-81
2021/12/20 03:56:02;;;;;;;2.90;2.75;;;3.50;99.90;;;;;;5003588;28;20248;-87
2021/12/20 03:58:29;;;;;;;2.55;2.45;;;3.50;99.90;;;;;;5004723;28;20228;-85
2021/12/20 04:01:00;;;;;;;2.90;2.70;;;3.50;99.90;;;;;;5009458;28;20224;-83
2021/12/20 04:03:30;;;;;;;2.90;2.80;;;3.60;99.90;;;;;;5003731;28;20730;-84
2021/12/20 04:05:57;;;;;;;3.30;3.10;;;3.70;99.90;;;;;;5007975;28;20227;-82
2021/12/20 04:08:24;;;;;;;3.20;2.90;;;3.70;99.90;;;;;;5006163;28;20256;-85
2021/12/20 04:10:52;;;;;;;2.90;2.70;;;3.60;99.90;;;;;;5008510;28;20227;-85
2021/12/20 04:13:19;;;;;;;3.58;3.35;;;3.60;99.90;;;;;;5006190;28;20226;-82
2021/12/20 04:15:46;;;;;;;3.05;2.80;;;3.60;99.90;;;;;;5008414;28;20235;-82
2021/12/20 04:18:14;;;;;;;2.75;2.65;;;3.70;99.90;;;;;;5001901;28;20773;-82
2021/12/20 04:20:41;;;;;;;2.65;2.55;;;3.70;99.90;;;;;;5007999;28;20268;-83
2021/12/20 04:23:08;;;;;;;2.72;2.63;;;3.70;99.90;;;;;;5004873;28;20351;-82
2021/12/20 04:25:35;;;;;;;2.78;2.67;;;3.70;99.90;;;;;;5000057;28;20228;-83
2021/12/20 04:28:03;;;;;;;3.05;2.88;;;3.60;99.90;;;;;;5016263;28;20224;-80
2021/12/20 04:30:31;;;;;;;3.08;2.88;;;3.60;99.90;;;;;;5005238;28;20228;-81
2021/12/20 04:32:59;;;;;;;2.90;2.80;;;3.60;99.90;;;;;;5020564;28;20226;-84
2021/12/20 04:35:27;;;;;;;2.97;2.88;;;3.50;99.90;;;;;;5006188;28;20221;-80
2021/12/20 04:37:56;;;;;;;4.13;3.05;;;3.50;99.90;;;;;;5012656;28;20694;-85
2021/12/20 04:40:23;;;;;;;3.40;3.20;;;3.40;99.90;;;;;;5006435;28;20230;-85
2021/12/20 04:42:52;;;;;;;3.20;3.00;;;3.40;99.90;;;;;;5011038;28;20247;-83
2021/12/20 04:45:21;;;;;;;3.35;3.10;;;3.40;99.90;;;;;;5014768;28;20683;-85
2021/12/20 04:47:48;;;;;;;3.20;3.00;;;3.30;99.90;;;;;;5001683;28;20219;-81
2021/12/20 04:50:15;;;;;;;3.33;3.13;;;3.20;99.90;;;;;;5005744;28;20227;-82
2021/12/20 04:52:44;;;;;;;3.35;3.15;;;3.10;99.90;;;;;;5003894;28;21553;-84
2021/12/20 04:55:13;;;;;;;3.78;3.47;;;3.10;99.90;;;;;;5001719;28;20225;-83
2021/12/20 04:57:42;;;;;;;3.42;3.20;;;3.10;99.90;;;;;;5004886;28;20215;-87
2021/12/20 05:00:13;;;;;;;3.47;3.28;;;3.20;99.90;;;;;;5041005;23;20231;-79
2021/12/20 05:02:40;;;;;;;3.25;3.08;;;3.40;99.90;;;;;;5042099;28;20777;-80
2021/12/20 05:05:09;;;;;;;3.40;3.20;;;3.30;99.90;;;;;;5038434;28;20219;-79
2021/12/20 05:07:37;;;;;;;2.75;2.60;;;3.30;99.90;;;;;;5036069;28;20713;-77
2021/12/20 05:10:11;;;;;;;2.83;2.72;;;3.40;99.90;;;;;;5020518;28;20232;-77
2021/12/20 05:12:39;;;;;;;3.10;2.90;;;3.40;99.90;;;;;;5019135;28;20214;-77
2021/12/20 05:15:07;;;;;;;2.90;2.80;;;3.30;99.90;;;;;;5013522;28;20230;-76
2021/12/20 05:17:36;;;;;;;2.97;2.80;;;3.40;99.90;;;;;;5014455;28;20223;-78
2021/12/20 05:20:03;;;;;;;2.30;2.20;;;3.40;99.90;;;;;;5018124;28;20231;-76
2021/12/20 05:22:30;;;;;;;2.70;2.60;;;3.50;99.90;;;;;;5023838;28;20232;-75
2021/12/20 05:24:57;;;;;;;2.88;2.75;;;3.50;99.90;;;;;;5021237;28;20223;-75
2021/12/20 05:27:26;;;;;;;3.15;3.05;;;3.50;99.90;;;;;;5020717;28;20293;-78
2021/12/20 05:29:53;;;;;;;3.28;3.00;;;3.50;99.90;;;;;;5013040;28;20227;-80
2021/12/20 05:32:21;;;;;;;3.13;2.92;;;3.40;99.90;;;;;;5022399;28;20471;-75
2021/12/20 05:34:48;;;;;;;4.13;3.83;;;3.40;99.90;;;;;;5000800;28;20215;-79
2021/12/20 05:37:16;;;;;;;3.80;3.50;;;3.40;99.90;;;;;;4994097;28;20232;-76
2021/12/20 05:39:44;;;;;;;4.07;3.78;;;3.40;99.90;;;;;;5031811;28;20239;-77
2021/12/20 05:42:11;;;;;;;4.25;3.95;;;3.30;99.90;;;;;;5027186;28;20277;-76
2021/12/20 05:44:40;;;;;;;3.50;3.30;;;3.30;99.90;;;;;;5030431;28;20273;-75
2021/12/20 05:47:07;;;;;;;3.80;3.60;;;3.30;99.90;;;;;;5021535;28;20268;-75
2021/12/20 05:49:34;;;;;;;4.00;3.70;;;3.20;99.90;;;;;;5030948;28;20227;-76
2021/12/20 05:52:03;;;;;;;4.05;3.75;;;3.10;99.90;;;;;;5023182;28;20306;-77
2021/12/20 05:54:30;;;;;;;4.63;3.90;;;3.10;99.90;;;;;;5034563;28;20598;-76
2021/12/20 05:56:57;;;;;;;4.47;4.07;;;3.10;99.90;;;;;;5024312;28;20224;-75
2021/12/20 05:59:24;;;;;;;4.70;4.30;;;3.10;99.90;;;;;;5024213;28;20231;-75
2021/12/20 06:01:53;;;;;;;4.18;3.88;;;3.10;99.90;;;;;;5023656;28;20293;-76
2021/12/20 06:04:20;;;;;;;3.58;3.33;;;3.10;99.90;;;;;;5026482;28;20655;-76
2021/12/20 06:06:47;;;;;;;4.93;4.53;;;3.10;99.90;;;;;;5026729;28;20227;-77
2021/12/20 06:09:14;;;;;;;4.03;3.72;;;3.10;99.90;;;;;;5024226;28;20223;-76
2021/12/20 06:11:42;;;;;;;4.40;4.00;;;3.10;99.90;;;;;;5020326;28;20459;-80
2021/12/20 06:14:09;;;;;;;3.65;3.45;;;3.10;99.90;;;;;;5033015;28;20220;-84
2021/12/20 06:16:36;;;;;;;4.18;3.88;;;3.00;99.90;;;;;;5030183;28;20223;-75
2021/12/20 06:19:05;;;;;;;3.30;3.10;;;3.00;99.90;;;;;;5030576;28;20712;-75
2021/12/20 06:21:32;;;;;;;7.25;4.00;;;3.00;99.90;;;;;;5024461;28;20708;-76
2021/12/20 06:23:59;;;;;;;5.93;3.70;;;3.00;99.90;;;;;;5025731;28;20712;-76
2021/12/20 06:26:26;;;;;;;3.65;3.45;;;2.90;99.90;;;;;;5031702;28;20219;-76
2021/12/20 06:28:54;;;;;;;3.47;3.17;;;2.90;99.90;;;;;;5030690;28;20238;-75
2021/12/20 06:31:21;;;;;;;3.63;3.40;;;2.90;99.90;;;;;;5026585;28;20742;-76
2021/12/20 06:33:48;;;;;;;3.45;3.22;;;3.00;99.90;;;;;;5028113;28;20605;-76
2021/12/20 06:36:18;;;;;;;3.40;3.20;;;3.00;99.90;;;;;;5030816;28;20219;-78
2021/12/20 06:38:46;;;;;;;3.20;3.00;;;3.00;99.90;;;;;;5028805;28;20289;-76
2021/12/20 06:41:13;;;;;;;3.50;3.30;;;3.00;99.90;;;;;;5028003;28;20242;-77
2021/12/20 06:43:41;;;;;;;3.22;3.03;;;3.00;99.90;;;;;;5024782;28;20224;-76
2021/12/20 06:46:08;;;;;;;3.60;3.40;;;3.00;99.90;;;;;;5021244;28;20238;-81
2021/12/20 06:48:35;;;;;;;3.42;3.10;;;3.00;99.90;;;;;;5017522;28;20277;-75
2021/12/20 06:51:02;;;;;;;3.50;3.15;;;3.00;99.90;;;;;;5019729;28;20223;-75
2021/12/20 06:53:31;;;;;;;3.40;3.10;;;3.00;99.90;;;;;;5027414;28;20228;-74
2021/12/20 06:55:58;;;;;;;3.25;3.05;;;2.90;99.90;;;;;;5027066;28;20226;-72
2021/12/20 06:58:25;;;;;;;3.45;3.17;;;2.90;99.90;;;;;;5020392;28;20215;-74
2021/12/20 07:00:53;;;;;;;3.53;3.33;;;2.90;99.90;;;;;;5024275;28;20218;-75
2021/12/20 07:03:21;;;;;;;3.95;3.70;;;2.90;99.90;;;;;;5021667;28;20536;-72
2021/12/20 07:05:48;;;;;;;3.92;3.72;;;2.90;99.90;;;;;;5019839;28;20227;-74
2021/12/20 07:08:17;;;;;;;3.60;3.40;;;3.00;99.90;;;;;;5021765;28;20222;-74
2021/12/20 07:10:45;;;;;;;4.20;3.90;;;2.90;99.90;;;;;;5017507;28;20737;-74
2021/12/20 07:13:12;;;;;;;3.70;3.50;;;2.80;99.90;;;;;;5024863;28;20240;-77
2021/12/20 07:15:39;;;;;;;3.38;3.17;;;2.80;99.90;;;;;;5012918;28;20224;-78
2021/12/20 07:18:06;;;;;;;3.75;3.55;;;2.80;99.90;;;;;;5022022;28;20218;-74
2021/12/20 07:20:34;;;;;;;3.55;3.35;;;2.70;99.90;;;;;;5017572;28;20665;-78
2021/12/20 07:23:01;;;;;;;3.67;3.47;;;2.80;99.90;;;;;;5014931;28;20237;-75
2021/12/20 07:25:28;;;;;;;3.70;3.50;;;2.80;99.90;;;;;;5028307;28;20227;-76
2021/12/20 07:27:57;;;;;;;3.30;3.10;;;2.80;99.90;;;;;;5023151;28;20226;-73
2021/12/20 07:30:24;;;;;;;3.20;3.00;;;2.90;99.90;;;;;;5022559;28;20232;-74
2021/12/20 07:32:51;;;;;;;3.05;2.85;;;3.00;99.90;;;;;;5016527;28;20374;-75
2021/12/20 07:35:19;;;;;;;4.43;3.85;;;3.00;99.90;;;;;;5024523;28;20222;-73
2021/12/20 07:37:47;;;;;;;3.83;3.63;;;3.00;99.90;;;;;;5016864;28;20281;-75
2021/12/20 07:40:15;;;;;;;3.60;3.40;;;3.10;99.90;;;;;;5017934;28;20226;-73
2021/12/20 07:42:42;;;;;;;3.72;3.53;;;3.20;99.90;;;;;;5019000;28;22332;-75
2021/12/20 07:45:12;;;;;;;3.92;3.63;;;3.20;99.90;;;;;;5014518;28;20274;-75
2021/12/20 07:47:39;;;;;;;3.75;3.55;;;3.30;99.90;;;;;;5017045;28;20224;-76
2021/12/20 07:50:07;;;;;;;3.83;3.53;;;3.30;99.90;;;;;;5014012;28;20760;-75
2021/12/20 07:52:34;;;;;;;3.60;3.40;;;3.40;99.90;;;;;;5013656;28;20651;-76
2021/12/20 07:55:01;;;;;;;3.88;3.50;;;3.40;99.90;;;;;;5014376;28;20224;-74
2021/12/20 07:57:28;;;;;;;6.53;4.40;;;3.40;99.90;;;;;;5005778;28;20305;-74
2021/12/20 07:59:56;;;;;;;4.60;4.30;;;3.40;99.90;;;;;;5021980;28;20224;-74
2021/12/20 08:02:24;;;;;;;3.92;3.63;;;3.40;99.90;;;;;;5018017;28;20238;-75
2021/12/20 08:04:51;;;;;;;4.53;4.13;;;3.40;99.90;;;;;;5020537;28;20535;-75
2021/12/20 08:07:21;;;;;;;4.45;4.15;;;3.50;99.90;;;;;;4983903;28;20326;-75
2021/12/20 08:09:50;;;;;;;3.60;3.30;;;3.50;99.90;;;;;;5007313;28;20750;-75
2021/12/20 08:12:17;;;;;;;4.18;3.85;;;3.50;99.90;;;;;;5018357;28;20239;-75
2021/12/20 08:14:45;;;;;;;4.75;4.45;;;3.40;99.90;;;;;;5016314;28;20288;-74
2021/12/20 08:17:12;;;;;;;4.07;3.78;;;3.40;99.90;;;;;;5015755;28;20239;-76
2021/12/20 08:19:40;;;;;;;4.60;4.30;;;4.00;99.90;;;;;;5016612;28;20231;-74
2021/12/20 08:22:08;;;;;;;4.43;4.03;;;5.00;99.90;;;;;;5014401;28;20277;-77
2021/12/20 08:24:35;;;;;;;3.90;3.60;;;6.10;99.90;;;;;;5014909;28;20772;-74
2021/12/20 08:27:02;;;;;;;4.72;4.05;;;7.10;99.90;;;;;;5018119;28;20645;-76
2021/12/20 08:29:29;;;;;;;3.92;3.63;;;8.00;99.90;;;;;;5022373;28;20246;-75
2021/12/20 08:32:01;;;;;;;4.20;3.80;;;8.80;99.90;;;;;;5022414;28;20223;-74
2021/12/20 08:34:28;;;;;;;4.05;3.72;;;9.60;99.90;;;;;;5020762;28;20684;-75
2021/12/20 08:36:57;;;;;;;4.57;3.30;;;10.20;99.90;;;;;;5020659;28;20326;-75
2021/12/20 08:39:26;;;;;;;4.25;3.88;;;10.50;99.90;;;;;;5021115;28;20638;-73
2021/12/20 08:41:54;;;;;;;3.92;3.63;;;11.00;99.90;;;;;;5023011;28;20717;-76
2021/12/20 08:44:21;;;;;;;4.18;3.78;;;11.50;99.90;;;;;;5021776;28;20622;-73
2021/12/20 08:46:48;;;;;;;4.25;3.85;;;11.80;99.90;;;;;;5020315;28;20219;-75
2021/12/20 08:49:15;;;;;;;4.07;3.78;;;12.20;99.90;;;;;;5019263;28;20227;-77
2021/12/20 08:51:42;;;;;;;4.38;3.90;;;12.40;99.90;;;;;;5020423;28;21295;-75
2021/12/20 08:54:11;;;;;;;4.53;4.13;;;12.70;99.60;;;;;;5022255;28;20315;-76
2021/12/20 08:56:38;;;;;;;4.60;4.20;;;13.20;99.10;;;;;;5017157;28;20227;-76
2021/12/20 08:59:06;;;;;;;4.35;3.95;;;14.00;97.60;;;;;;5020394;28;20228;-75
2021/12/20 09:01:33;;;;;;;4.38;3.97;;;15.00;96.20;;;;;;5017346;28;20223;-76
2021/12/20 09:04:01;;;;;;;3.92;3.63;;;15.90;92.40;;;;;;5009663;28;20227;-76
2021/12/20 09:06:28;;;;;;;5.03;4.05;;;16.00;91.70;;;;;;5022911;28;20223;-75
2021/12/20 09:08:56;;;;;;;4.65;3.58;;;16.10;92.10;;;;;;5023908;28;20224;-75
2021/12/20 09:11:26;;;;;;;4.45;3.90;;;16.90;91.40;;;;;;5016214;28;20228;-76
2021/12/20 09:13:54;;;;;;;4.07;3.67;;;17.80;90.20;;;;;;5001401;28;20265;-75
2021/12/20 09:16:22;;;;;;;3.83;3.42;;;19.00;86.80;;;;;;5022119;28;20227;-76
2021/12/20 09:18:49;;;;;;;4.68;3.83;;;20.00;80.70;;;;;;5024775;28;20277;-74
2021/12/20 09:21:16;;;;;;;4.03;3.47;;;21.00;78.10;;;;;;5022875;28;20222;-76
2021/12/20 09:23:44;;;;;;;4.68;3.40;;;21.90;75.40;;;;;;5025443;28;20230;-77
2021/12/20 09:26:11;;;;;;;3.97;3.60;;;22.60;70.90;;;;;;5015785;28;20239;-76
2021/12/20 09:28:40;;;;;;;4.32;3.65;;;23.50;68.70;;;;;;5019643;28;20695;-76
2021/12/20 09:31:09;;;;;;;6.07;3.60;;;24.10;65.30;;;;;;5022412;28;20627;-73
2021/12/20 09:33:37;;;;;;;4.07;3.67;;;24.20;64.50;;;;;;5019738;28;20648;-74
2021/12/20 09:36:05;;;;;;;3.97;3.50;;;24.40;62.70;;;;;;5028581;28;20214;-77
2021/12/20 09:38:32;;;;;;;4.03;3.42;;;24.60;60.60;;;;;;5026066;28;20724;-73
2021/12/20 09:41:28;;;;;;;4.07;3.67;;;24.90;59.90;;;;;;5020673;28;20454;-75
2021/12/20 09:43:58;;;;;;;4.32;3.20;;;25.20;58.70;;;;;;5022507;28;20222;-76
2021/12/20 09:46:29;;;;;;;5.65;3.33;;;25.30;57.50;;;;;;5034072;28;20243;-78
2021/12/20 09:48:57;;;;;;;4.80;3.90;;;25.30;57.10;;;;;;5026515;28;20219;-76
2021/12/20 09:51:25;;;;;;;4.10;3.70;;;25.10;57.00;;;;;;5023417;28;20265;-76
2021/12/20 09:53:52;;;;;;;5.60;4.30;;;24.70;57.10;;;;;;5025841;28;20223;-75
2021/12/20 09:56:20;;;;;;;5.35;4.05;;;24.20;57.60;;;;;;5022286;28;20227;-77
2021/12/20 09:58:50;;;;;;;4.50;4.10;;;23.40;58.10;;;;;;4979735;28;20552;-76
2021/12/20 10:01:20;;;;;;;5.10;3.90;;;22.40;58.50;;;;;;4981296;28;20218;-75
2021/12/20 10:03:48;;;;;;;3.67;3.30;;;21.10;60.00;;;;;;5014254;28;20223;-76
2021/12/20 10:06:15;;;;;;;3.88;3.58;;;19.50;64.00;;;;;;5028693;28;20232;-78
2021/12/20 10:08:50;;;;;;;3.85;3.55;;;18.00;67.30;;;;;;5022009;28;20328;-77
2021/12/20 10:11:20;;;;;;;3.70;3.10;;;16.90;69.70;;;;;;5019238;28;20487;-75
2021/12/20 10:13:47;;;;;;;4.45;3.22;;;15.90;71.90;;;;;;5023696;28;20226;-78
2021/12/20 10:16:17;;;;;;;3.97;3.15;;;15.60;76.10;;;;;;5018585;28;20227;-78
2021/12/20 10:18:45;;;;;;;3.65;3.35;;;15.80;77.30;;;;;;5026663;28;20766;-77
2021/12/20 10:21:13;;;;;;;3.22;3.03;;;15.80;77.50;;;;;;5019870;28;20274;-74
2021/12/20 10:23:41;;;;;;;4.25;3.55;;;15.90;78.40;;;;;;5016762;28;20772;-73
2021/12/20 10:26:13;;;;;;;4.85;4.10;;;16.10;78.70;;;;;;5020447;28;20226;-75
2021/12/20 10:28:43;;;;;;;4.93;4.05;;;16.20;79.20;;;;;;5021337;28;20306;-75
2021/12/20 10:31:13;;;;;;;4.30;3.85;;;16.20;79.10;;;;;;5022965;28;20232;-74
2021/12/20 10:33:41;;;;;;;4.30;3.90;;;15.90;79.20;;;;;;5024590;28;20227;-78
2021/12/20 10:36:13;;;;;;;5.22;3.65;;;15.50;79.50;;;;;;5029130;28;20215;-76
2021/12/20 10:38:41;;;;;;;4.65;3.53;;;15.30;79.90;;;;;;5034610;28;20227;-76
2021/12/20 10:41:12;;;;;;;4.10;3.40;;;15.40;81.30;;;;;;5022217;28;20222;-77
2021/12/20 10:43:47;;;;;;;5.15;3.58;;;15.40;81.30;;;;;;5013790;28;21002;-77
2021/12/20 10:46:17;;;;;;;5.45;4.35;;;15.40;80.30;;;;;;5020887;28;20231;-77
2021/12/20 10:48:47;;;;;;;6.20;4.47;;;15.10;80.40;;;;;;4981997;28;20246;-76
2021/12/20 10:51:21;;;;;;;5.20;4.15;;;15.00;80.00;;;;;;5019833;28;20576;-77
2021/12/20 10:53:51;;;;;;;4.43;4.03;;;14.70;80.50;;;;;;5007634;28;20220;-78
2021/12/20 10:56:19;;;;;;;3.95;3.55;;;14.60;81.70;;;;;;5018426;28;20685;-76
2021/12/20 10:58:46;;;;;;;4.65;3.92;;;14.60;81.40;;;;;;5019005;28;20223;-76
2021/12/20 11:04:04;;;;;;;5.72;3.88;;;14.30;83.40;;;;;;5046589;22;20247;-81
2021/12/20 11:06:45;;;;;;;3.95;3.65;;;14.50;82.10;;;;;;4982500;28;20241;-79
2021/12/20 11:09:18;;;;;;;4.47;3.97;;;14.70;82.70;;;;;;4981976;28;20243;-79
2021/12/20 11:11:48;;;;;;;4.47;3.63;;;15.10;81.80;;;;;;5019348;28;20713;-80
2021/12/20 11:14:16;;;;;;;4.78;3.75;;;15.40;81.90;;;;;;4993543;28;20219;-79
2021/12/20 11:16:45;;;;;;;6.30;4.60;;;15.70;81.60;;;;;;4979385;28;20239;-77
2021/12/20 11:22:29;;;;;;;5.13;3.63;;;15.90;79.60;;;;;;5101158;22;20227;-79
2021/12/20 11:24:59;;;;;;;4.00;3.60;;;15.90;80.70;;;;;;5027925;28;20449;-78
2021/12/20 11:27:31;;;;;;;6.43;3.45;;;15.80;79.80;;;;;;5019859;28;20311;-78
2021/12/20 11:30:00;;;;;;;4.82;3.53;;;15.80;79.40;;;;;;5019164;28;20226;-79
2021/12/20 11:32:28;;;;;;;4.28;3.28;;;15.70;79.00;;;;;;5019714;28;20579;-78
2021/12/20 11:34:56;;;;;;;3.60;2.88;;;15.80;79.20;;;;;;5021581;28;20635;-78
2021/12/20 11:37:28;;;;;;;3.58;2.92;;;15.80;79.00;;;;;;5020649;28;20745;-79
2021/12/20 11:39:57;;;;;;;3.35;2.83;;;16.00;78.70;;;;;;5019090;28;21076;-77
2021/12/20 11:42:25;;;;;;;4.30;3.08;;;15.90;77.60;;;;;;5019846;28;20219;-78
2021/12/20 11:44:58;;;;;;;3.40;3.03;;;15.90;78.60;;;;;;5016382;28;20292;-78
2021/12/20 11:47:31;;;;;;;3.85;3.13;;;16.00;77.90;;;;;;5013061;28;20581;-78
2021/12/20 11:49:59;;;;;;;3.40;3.10;;;16.10;77.30;;;;;;5018782;28;20219;-78
2021/12/20 11:52:32;;;;;;;3.33;3.03;;;16.10;77.30;;;;;;5016739;28;20277;-79
2021/12/20 11:55:00;;;;;;;2.90;2.60;;;15.90;77.80;;;;;;5015891;28;20239;-78
2021/12/20 11:57:42;;;;;;;3.55;3.00;;;15.70;77.80;;;;;;5016537;28;20224;-76
2021/12/20 12:00:20;;;;;;;3.50;3.20;;;15.70;77.30;;;;;;5018327;28;20262;-78
2021/12/20 12:02:49;;;;;;;5.78;3.03;;;15.50;78.00;;;;;;5019271;28;20250;-78
2021/12/20 12:05:21;;;;;;;3.70;3.35;;;15.40;77.90;;;;;;5018055;28;20224;-79
2021/12/20 12:07:49;;;;;;;5.00;3.50;;;15.40;79.20;;;;;;5027896;28;20239;-79
2021/12/20 12:10:18;;;;;;;4.38;3.50;;;15.50;80.40;;;;;;5017756;28;20224;-80
2021/12/20 12:12:49;;;;;;;4.28;3.88;;;15.40;80.20;;;;;;5023114;28;20524;-79
2021/12/20 12:15:21;;;;;;;4.20;3.90;;;15.20;81.20;;;;;;5025881;28;20314;-81
2021/12/20 12:17:57;;;;;;;7.03;4.88;;;15.30;82.10;;;;;;5016171;28;20216;-78
2021/12/20 12:20:48;;;;;;;5.13;3.95;;;15.40;82.30;;;;;;5014382;28;20222;-79
2021/12/20 12:23:19;;;;;;;4.22;3.80;;;15.20;81.90;;;;;;5011691;28;20232;-78
2021/12/20 12:25:49;;;;;;;6.03;4.90;;;15.00;83.70;;;;;;5019731;28;20232;-81
2021/12/20 12:28:18;;;;;;;5.45;4.68;;;14.60;83.90;;;;;;5020914;28;20577;-79
2021/12/20 12:31:03;;;;;;;5.60;4.93;;;14.10;84.90;;;;;;5018295;28;20248;-81
2021/12/20 12:33:34;;;;;;;7.63;5.38;;;13.80;85.50;;;;;;5024224;28;20226;-78
2021/12/20 12:36:39;;;;;;;6.45;5.90;;;13.20;87.20;;;;;;5021556;28;20273;-79
2021/12/20 12:39:11;;;;;;;8.77;6.35;;;12.70;89.40;;;;;;5024325;28;20219;-80
2021/12/20 12:41:45;;;;;;;7.43;5.70;;;12.10;90.60;;;;;;5023384;28;20709;-79
2021/12/20 12:44:24;;;;;;;6.72;4.90;;;11.70;91.10;;;;;;5025802;28;20231;-80
2021/12/20 12:50:26;;;;;;;5.63;4.70;;;11.60;91.20;;;;;;4953821;28;20305;-79
2021/12/20 12:52:53;;;;;;;4.93;4.47;;;11.40;90.60;;;;;;5016517;28;20293;-78
2021/12/20 12:55:31;;;;;;;4.97;4.50;;;11.00;90.60;;;;;;5013365;28;20647;-78
2021/12/20 12:58:18;;;;;;;5.03;4.53;;;10.80;90.80;;;;;;5015229;28;20218;-79
2021/12/20 13:00:57;;;;;;;5.57;5.07;;;10.70;91.10;;;;;;5014776;28;20257;-78
2021/12/20 13:03:26;;;;;;;5.53;4.53;;;10.80;91.10;;;;;;5014739;28;20302;-79
2021/12/20 13:05:54;;;;;;;6.50;4.68;;;11.10;91.60;;;;;;5018057;28;20278;-79
2021/12/20 13:08:21;;;;;;;5.25;4.38;;;11.60;91.40;;;;;;5016941;28;20227;-79
2021/12/20 13:10:51;;;;;;;4.90;4.43;;;11.90;91.10;;;;;;4982648;28;20263;-78
2021/12/20 13:13:23;;;;;;;5.72;3.67;;;12.20;90.80;;;;;;5014786;28;20232;-80
2021/12/20 13:15:55;;;;;;;4.57;4.18;;;12.50;90.30;;;;;;5016369;28;20602;-78
2021/12/20 13:18:32;;;;;;;5.30;3.85;;;12.80;89.10;;;;;;5013619;28;20297;-79
2021/12/20 13:21:02;;;;;;;4.13;3.72;;;13.00;87.60;;;;;;5013782;28;20497;-77